Time;durP1;ratioP1;P1;durP2;ratioP2;P2;SDS_P1;SDS_P2;PMS_P1;PMS_P2;Temp;Humidity;BMP_temperature;BMP_pressure;BME280_temperature;BME280_humidity;BME280_pressure;Samples;Min_cycle;Max_cycle;Signal;HPM_P1;HPM_P2
2021/11/14 21:22:38;;;;;;;78.67;44.08;;;;;;;6.29;94.98;143808.14;1818018;77;26958;-62
2021/11/14 21:25:12;;;;;;;75.45;44.13;;;;;;;6.32;95.03;143814.37;1820545;77;22144;-62
2021/11/14 21:27:49;;;;;;;74.22;42.48;;;;;;;6.34;94.94;143818.16;1816283;77;22227;-64
2021/11/14 21:30:30;;;;;;;77.75;43.10;;;;;;;6.36;95.03;143823.11;1817693;77;22227;-63
2021/11/14 21:33:27;;;;;;;75.70;44.25;;;;;;;6.40;94.98;143833.12;1820019;77;22556;-66
2021/11/14 21:39:15;;;;;;;68.37;38.10;;;;;;;6.52;94.71;143863.14;1829747;77;22207;-66
2021/11/14 21:41:50;;;;;;;66.53;40.28;;;;;;;6.57;94.74;143875.64;1817488;77;22148;-64
2021/11/14 21:44:25;;;;;;;64.85;36.95;;;;;;;6.62;94.58;143886.91;1826351;77;22168;-64
2021/11/14 21:47:25;;;;;;;70.17;41.00;;;;;;;6.70;94.38;143908.12;1819454;77;22578;-63
2021/11/14 21:50:00;;;;;;;66.12;39.67;;;;;;;6.70;94.09;143908.12;1812024;77;22183;-65
2021/11/14 21:53:00;;;;;;;69.55;39.53;;;;;;;6.63;94.02;143890.63;1812631;77;22278;-62
2021/11/14 21:55:36;;;;;;;64.92;37.75;;;;;;;6.55;93.91;143869.39;1833311;77;22171;-60
2021/11/14 21:58:13;;;;;;;70.97;40.48;;;;;;;6.50;94.24;143858.13;1820169;77;22146;-62
2021/11/14 22:01:07;;;;;;;69.58;38.58;;;;;;;6.53;94.33;143865.63;1821345;77;22164;-66
2021/11/14 22:03:42;;;;;;;71.87;40.67;;;;;;;6.56;94.25;143873.11;1801957;77;22198;-61
2021/11/14 22:06:17;;;;;;;75.92;41.53;;;;;;;6.63;94.30;143890.63;1817541;77;22140;-62
2021/11/14 22:09:13;;;;;;;67.55;40.50;;;;;;;6.73;94.02;143915.63;1820665;77;22120;-66
2021/11/14 22:11:54;;;;;;;77.60;43.25;;;;;;;6.74;93.65;143918.16;1816274;77;22176;-64
2021/11/14 22:14:36;;;;;;;73.47;42.30;;;;;;;6.70;93.61;143908.12;1820367;78;22225;-63
2021/11/14 22:17:11;;;;;;;79.37;45.38;;;;;;;6.70;93.59;143908.12;1833197;77;22665;-66
2021/11/14 22:20:08;;;;;;;71.47;42.17;;;;;;;6.78;93.74;143925.66;1832651;77;22215;-62
2021/11/14 22:22:44;;;;;;;73.85;42.40;;;;;;;6.90;93.38;143956.91;1832953;77;22255;-62
2021/11/14 22:25:21;;;;;;;75.32;45.20;;;;;;;6.91;92.92;143959.39;1783564;79;28301;-64
2021/11/14 22:28:15;;;;;;;69.42;39.95;;;;;;;6.97;92.62;143973.13;1832890;77;22224;-62
2021/11/14 22:31:15;;;;;;;62.50;38.55;;;;;;;6.91;92.38;143959.39;1848138;78;22176;-62
2021/11/14 22:33:50;;;;;;;73.37;42.13;;;;;;;6.91;92.33;143959.39;1853528;77;22550;-65
2021/11/14 22:36:25;;;;;;;72.47;41.95;;;;;;;6.97;92.34;143973.13;1853516;77;22574;-63
2021/11/14 22:39:00;;;;;;;73.65;41.88;;;;;;;7.02;92.12;143985.69;1834959;77;22561;-65
2021/11/14 22:42:00;;;;;;;81.37;43.40;;;;;;;7.10;91.81;144005.69;1834219;77;22192;-62
2021/11/14 22:44:35;;;;;;;66.45;38.50;;;;;;;7.10;91.46;144005.69;1835005;77;22124;-62
2021/11/14 22:47:29;;;;;;;64.27;35.92;;;;;;;7.09;91.22;144003.16;1843393;77;22136;-62
2021/11/14 22:50:11;;;;;;;68.72;38.08;;;;;;;7.03;90.93;143988.17;1853514;77;22616;-64
2021/11/14 22:53:04;;;;;;;62.93;38.48;;;;;;;6.94;90.78;143965.64;1834973;77;22133;-63
2021/11/14 22:55:39;;;;;;;60.38;37.60;;;;;;;6.81;90.96;143933.14;1835002;77;22180;-64
2021/11/14 22:58:14;;;;;;;61.58;38.60;;;;;;;6.71;91.23;143910.62;1834925;77;22132;-65
2021/11/14 23:01:25;;;;;;;62.98;41.88;;;;;;;6.65;91.47;143895.63;1819212;77;27991;-63
2021/11/14 23:04:16;;;;;;;65.52;39.03;;;;;;;6.65;91.63;143895.63;1853543;77;22123;-64
2021/11/14 23:06:51;;;;;;;67.67;39.90;;;;;;;6.65;91.78;143895.63;1834934;77;22124;-63
2021/11/14 23:09:26;;;;;;;59.77;36.00;;;;;;;6.66;91.75;143898.13;1853532;77;22131;-64
2021/11/14 23:12:01;;;;;;;60.95;38.40;;;;;;;6.67;91.84;143900.64;1835056;77;22152;-64
2021/11/14 23:14:37;;;;;;;66.17;39.78;;;;;;;6.74;91.82;143916.88;1848220;77;20099;-63
2021/11/14 23:17:12;;;;;;;68.97;39.85;;;;;;;6.84;91.68;143940.63;1853531;77;22158;-62
2021/11/14 23:20:08;;;;;;;65.92;38.38;;;;;;;6.94;91.51;143966.87;1834936;77;22156;-64
2021/11/14 23:22:47;;;;;;;72.00;40.38;;;;;;;7.04;91.12;143990.66;1834751;77;22132;-62
2021/11/14 23:25:22;;;;;;;69.20;40.35;;;;;;;7.05;90.80;143991.94;1835079;77;22136;-63
2021/11/14 23:28:17;;;;;;;65.42;36.60;;;;;;;7.05;90.70;143993.19;1835088;77;22132;-64
2021/11/14 23:30:53;;;;;;;62.10;36.08;;;;;;;7.06;90.54;143995.66;1834930;77;20210;-64
2021/11/14 23:33:48;;;;;;;65.35;36.75;;;;;;;7.08;90.20;144000.67;1853595;77;22570;-61
2021/11/14 23:36:25;;;;;;;63.28;37.98;;;;;;;7.02;90.01;143985.69;1834755;77;22151;-65
2021/11/14 23:39:05;;;;;;;64.15;40.48;;;;;;;6.96;90.14;143971.89;1827718;78;28005;-66
2021/11/14 23:42:06;;;;;;;68.37;39.80;;;;;;;7.06;90.22;143995.66;1834939;77;22157;-63
2021/11/14 23:44:37;;;;;;;63.42;37.83;;;;;;;7.07;90.05;143996.91;1853517;77;22123;-64
2021/11/14 23:47:12;;;;;;;64.95;41.45;;;;;;;7.08;89.87;144000.67;1834971;77;22124;-63
2021/11/14 23:49:47;;;;;;;59.30;36.80;;;;;;;7.01;89.57;143981.91;1834933;77;22156;-62
2021/11/14 23:52:42;;;;;;;56.13;35.55;;;;;;;6.87;89.75;143948.12;1834920;77;22591;-65
2021/11/14 23:55:18;;;;;;;69.70;41.45;;;;;;;6.86;89.98;143945.64;1853494;77;22184;-66
2021/11/14 23:57:54;;;;;;;63.50;39.60;;;;;;;6.87;90.01;143949.41;1835132;77;22132;-65
